Time;durP1;ratioP1;P1;durP2;ratioP2;P2;SDS_P1;SDS_P2;PMS_P1;PMS_P2;Temp;Humidity;BMP_temperature;BMP_pressure;BME280_temperature;BME280_humidity;BME280_pressure;Samples;Min_cycle;Max_cycle;Signal;HPM_P1;HPM_P2
2023/01/20 00:01:28;;;;;;;6.97;4.35;;;;;;;;;;5075022;28;20064;-64
2023/01/20 00:03:56;;;;;;;8.23;4.40;;;;;;;;;;5074864;28;20040;-64
2023/01/20 00:06:29;;;;;;;8.50;5.07;;;;;;;;;;5074835;28;20040;-64
2023/01/20 00:08:57;;;;;;;8.63;4.68;;;;;;;;;;5074657;28;20051;-64
2023/01/20 00:11:25;;;;;;;5.50;3.60;;;;;;;;;;5074850;28;20051;-65
2023/01/20 00:13:54;;;;;;;6.18;3.20;;;;;;;;;;5074814;28;20062;-65
2023/01/20 00:16:22;;;;;;;7.03;3.50;;;;;;;;;;5074885;28;20094;-64
2023/01/20 00:18:50;;;;;;;7.28;4.35;;;;;;;;;;5074747;28;20041;-65
2023/01/20 00:21:17;;;;;;;5.60;3.58;;;;;;;;;;5074518;28;20041;-64
2023/01/20 00:23:45;;;;;;;6.28;3.83;;;;;;;;;;5074564;28;20044;-65
2023/01/20 00:26:15;;;;;;;6.07;3.60;;;;;;;;;;5073175;28;20040;-64
2023/01/20 00:28:43;;;;;;;3.60;2.67;;;;;;;;;;5074638;28;20409;-64
2023/01/20 00:31:18;;;;;;;5.78;2.45;;;;;;;;;;5074339;28;20485;-64
2023/01/20 00:33:46;;;;;;;7.00;2.97;;;;;;;;;;5074224;28;20040;-64
2023/01/20 00:36:14;;;;;;;6.55;2.53;;;;;;;;;;5074318;28;20041;-64
2023/01/20 00:38:42;;;;;;;4.43;2.38;;;;;;;;;;5074258;28;20079;-64
2023/01/20 00:41:09;;;;;;;3.30;2.28;;;;;;;;;;5074238;28;20505;-64
2023/01/20 00:43:37;;;;;;;3.28;2.10;;;;;;;;;;5073872;28;20049;-65
2023/01/20 00:46:05;;;;;;;3.03;2.38;;;;;;;;;;5073977;28;20070;-65
2023/01/20 00:48:33;;;;;;;4.45;2.40;;;;;;;;;;5073837;28;20044;-65
2023/01/20 00:51:00;;;;;;;3.50;2.10;;;;;;;;;;5073737;28;20399;-65
2023/01/20 00:53:28;;;;;;;3.45;1.80;;;;;;;;;;5074104;28;20048;-65
2023/01/20 00:55:56;;;;;;;5.03;3.13;;;;;;;;;;5073705;28;20409;-64
2023/01/20 00:58:23;;;;;;;3.80;2.33;;;;;;;;;;5073847;28;20101;-65
2023/01/20 01:00:52;;;;;;;3.78;2.47;;;;;;;;;;5073904;28;20037;-65
2023/01/20 01:03:19;;;;;;;5.07;2.40;;;;;;;;;;5072360;28;20043;-64
2023/01/20 01:05:47;;;;;;;6.00;2.67;;;;;;;;;;5073741;28;20056;-64
2023/01/20 01:08:14;;;;;;;4.40;2.55;;;;;;;;;;5073679;28;20090;-64
2023/01/20 01:10:42;;;;;;;5.40;2.30;;;;;;;;;;5073574;28;20509;-64
2023/01/20 01:13:10;;;;;;;2.88;2.20;;;;;;;;;;5073797;28;20398;-65
2023/01/20 01:15:37;;;;;;;3.78;2.13;;;;;;;;;;5073535;28;20040;-64
2023/01/20 01:18:05;;;;;;;3.72;2.22;;;;;;;;;;5072361;28;20094;-64
2023/01/20 01:20:32;;;;;;;4.43;2.50;;;;;;;;;;5073426;28;20047;-64
2023/01/20 01:22:59;;;;;;;3.30;2.50;;;;;;;;;;5073271;28;20473;-65
2023/01/20 01:25:27;;;;;;;5.55;2.90;;;;;;;;;;5073299;28;20045;-64
2023/01/20 01:27:54;;;;;;;6.88;2.65;;;;;;;;;;5071812;28;20068;-64
2023/01/20 01:30:22;;;;;;;4.95;2.90;;;;;;;;;;5073123;28;20044;-64
2023/01/20 01:32:49;;;;;;;5.35;2.30;;;;;;;;;;5073018;28;20123;-65
2023/01/20 01:35:17;;;;;;;3.85;2.03;;;;;;;;;;5072983;28;20071;-64
2023/01/20 01:37:44;;;;;;;4.05;2.10;;;;;;;;;;5073110;28;20079;-65
2023/01/20 01:40:12;;;;;;;5.57;2.22;;;;;;;;;;5072918;28;20076;-65
2023/01/20 01:42:40;;;;;;;3.28;1.85;;;;;;;;;;5072361;28;20498;-65
2023/01/20 01:45:12;;;;;;;1.60;1.50;;;;;;;;;;5072736;28;20115;-65
2023/01/20 01:47:46;;;;;;;2.95;2.13;;;;;;;;;;5071617;28;20064;-65
2023/01/20 01:50:15;;;;;;;2.33;1.95;;;;;;;;;;5073069;28;20412;-64
2023/01/20 01:52:48;;;;;;;2.42;1.70;;;;;;;;;;5072940;28;20059;-64
2023/01/20 01:55:17;;;;;;;3.33;1.70;;;;;;;;;;5072809;28;20044;-64
2023/01/20 01:57:45;;;;;;;3.25;2.10;;;;;;;;;;5072912;28;20440;-65
2023/01/20 02:00:13;;;;;;;2.28;1.70;;;;;;;;;;5072659;28;20048;-64
2023/01/20 02:02:42;;;;;;;4.57;2.00;;;;;;;;;;5072775;28;20503;-65
2023/01/20 02:05:11;;;;;;;5.93;2.28;;;;;;;;;;5072538;28;20119;-64
2023/01/20 02:07:39;;;;;;;2.97;1.88;;;;;;;;;;5072811;28;20041;-64
2023/01/20 02:10:06;;;;;;;4.88;1.80;;;;;;;;;;5072516;28;20070;-64
2023/01/20 02:12:34;;;;;;;2.97;1.80;;;;;;;;;;5072572;28;20044;-64
2023/01/20 02:15:02;;;;;;;4.45;2.13;;;;;;;;;;5071318;28;20080;-64
2023/01/20 02:17:32;;;;;;;3.15;1.80;;;;;;;;;;5072497;28;20493;-64
2023/01/20 02:20:02;;;;;;;3.65;1.88;;;;;;;;;;5071596;28;20067;-64
2023/01/20 02:22:43;;;;;;;2.40;1.80;;;;;;;;;;5071161;28;20072;-65
2023/01/20 02:25:28;;;;;;;4.57;2.20;;;;;;;;;;5072323;28;20098;-64
2023/01/20 02:28:05;;;;;;;3.17;1.67;;;;;;;;;;5072380;28;20036;-64
2023/01/20 02:30:53;;;;;;;4.07;2.20;;;;;;;;;;5072365;28;20036;-64
2023/01/20 02:33:29;;;;;;;3.47;2.05;;;;;;;;;;5044537;28;20041;-64
2023/01/20 02:35:57;;;;;;;3.80;2.10;;;;;;;;;;5072174;28;20116;-64
2023/01/20 02:38:33;;;;;;;2.95;1.80;;;;;;;;;;5072251;28;20040;-64
2023/01/20 02:41:10;;;;;;;5.43;2.20;;;;;;;;;;5072334;28;20048;-64
2023/01/20 02:43:50;;;;;;;3.05;2.05;;;;;;;;;;5071004;28;20045;-64
2023/01/20 02:46:22;;;;;;;4.10;2.15;;;;;;;;;;5072592;28;20041;-64
2023/01/20 02:48:53;;;;;;;6.13;2.20;;;;;;;;;;5072313;28;20127;-64
2023/01/20 02:51:23;;;;;;;2.75;1.90;;;;;;;;;;5072231;28;20083;-64
2023/01/20 02:53:53;;;;;;;3.47;2.50;;;;;;;;;;5073724;28;20072;-64
2023/01/20 02:56:22;;;;;;;3.05;2.20;;;;;;;;;;5076146;28;20041;-64
2023/01/20 02:58:51;;;;;;;3.38;2.28;;;;;;;;;;5076347;28;20070;-64
2023/01/20 03:01:31;;;;;;;2.20;1.80;;;;;;;;;;5076088;28;20052;-65
2023/01/20 03:03:59;;;;;;;5.45;2.30;;;;;;;;;;5075949;28;20043;-64
2023/01/20 03:06:29;;;;;;;4.90;2.17;;;;;;;;;;5075961;28;20068;-64
2023/01/20 03:08:58;;;;;;;4.30;2.40;;;;;;;;;;5076153;28;20036;-65
2023/01/20 03:11:28;;;;;;;4.70;1.85;;;;;;;;;;5075885;28;20045;-64
2023/01/20 03:14:01;;;;;;;4.68;2.10;;;;;;;;;;5075754;28;20104;-64
2023/01/20 03:16:29;;;;;;;3.47;2.10;;;;;;;;;;5075690;28;20045;-65
2023/01/20 03:18:56;;;;;;;2.88;2.17;;;;;;;;;;5075787;28;20044;-65
2023/01/20 03:21:24;;;;;;;4.97;2.70;;;;;;;;;;5074463;28;20052;-64
2023/01/20 03:23:53;;;;;;;4.75;2.42;;;;;;;;;;5075480;28;20482;-64
2023/01/20 03:26:22;;;;;;;4.95;1.95;;;;;;;;;;5075825;28;20045;-64
2023/01/20 03:28:50;;;;;;;4.13;2.00;;;;;;;;;;5075541;28;20047;-64
2023/01/20 03:31:20;;;;;;;3.28;2.17;;;;;;;;;;5075496;28;20498;-64
2023/01/20 03:33:48;;;;;;;4.18;2.28;;;;;;;;;;5075262;28;20401;-64
2023/01/20 03:36:16;;;;;;;3.72;2.50;;;;;;;;;;5075326;28;20041;-65
2023/01/20 03:38:45;;;;;;;4.05;2.33;;;;;;;;;;5075640;28;20044;-65
2023/01/20 03:41:17;;;;;;;3.92;2.35;;;;;;;;;;5075566;28;20493;-65
2023/01/20 03:43:49;;;;;;;3.05;2.00;;;;;;;;;;5075451;28;20049;-65
2023/01/20 03:46:24;;;;;;;2.50;2.13;;;;;;;;;;5075248;28;20489;-65
2023/01/20 03:48:57;;;;;;;3.33;1.80;;;;;;;;;;5075098;28;20049;-65
2023/01/20 03:51:30;;;;;;;4.40;1.85;;;;;;;;;;5074115;28;20056;-65
2023/01/20 03:54:07;;;;;;;4.13;1.90;;;;;;;;;;5075219;28;20040;-65
2023/01/20 03:56:42;;;;;;;2.58;2.10;;;;;;;;;;5075206;28;20036;-65
2023/01/20 03:59:11;;;;;;;2.92;2.00;;;;;;;;;;5075111;28;20044;-65
2023/01/20 04:01:41;;;;;;;3.50;2.03;;;;;;;;;;5074985;28;20036;-65
2023/01/20 04:04:11;;;;;;;3.00;2.25;;;;;;;;;;5074283;28;20531;-65
2023/01/20 04:06:40;;;;;;;3.17;2.35;;;;;;;;;;5074446;28;20040;-65
2023/01/20 04:09:09;;;;;;;5.03;2.35;;;;;;;;;;5074787;28;20041;-65
2023/01/20 04:11:36;;;;;;;4.10;2.25;;;;;;;;;;5075023;28;20110;-65
2023/01/20 04:14:04;;;;;;;2.85;1.90;;;;;;;;;;5075017;28;20071;-65
2023/01/20 04:16:32;;;;;;;2.92;2.10;;;;;;;;;;5074842;28;20032;-65
2023/01/20 04:18:59;;;;;;;4.30;2.10;;;;;;;;;;5074930;28;20044;-65
2023/01/20 04:21:39;;;;;;;4.88;2.38;;;;;;;;;;5074213;28;20070;-65
2023/01/20 04:24:11;;;;;;;5.43;2.60;;;;;;;;;;5074519;28;20040;-65
2023/01/20 04:26:38;;;;;;;10.52;5.43;;;;;;;;;;5074355;28;20049;-65
2023/01/20 04:29:08;;;;;;;10.63;5.20;;;;;;;;;;5073249;28;20032;-65
2023/01/20 04:31:39;;;;;;;8.85;4.72;;;;;;;;;;5073966;28;20059;-65
2023/01/20 04:34:07;;;;;;;7.88;4.78;;;;;;;;;;5074040;28;20079;-65
2023/01/20 04:36:34;;;;;;;9.75;4.68;;;;;;;;;;5073844;28;20135;-65
2023/01/20 04:39:02;;;;;;;9.30;4.70;;;;;;;;;;5073400;28;20382;-65
2023/01/20 04:41:29;;;;;;;8.35;4.07;;;;;;;;;;5073938;28;20090;-65
2023/01/20 04:43:57;;;;;;;9.70;3.83;;;;;;;;;;5074402;28;20049;-66
2023/01/20 04:46:24;;;;;;;6.93;3.75;;;;;;;;;;5074260;28;20037;-65
2023/01/20 04:48:52;;;;;;;7.90;4.32;;;;;;;;;;5072932;28;20088;-65
2023/01/20 04:51:20;;;;;;;8.60;5.18;;;;;;;;;;5072727;28;20068;-65
2023/01/20 04:53:47;;;;;;;8.30;4.78;;;;;;;;;;5074074;28;20048;-65
2023/01/20 04:56:15;;;;;;;14.00;7.22;;;;;;;;;;5072571;28;20440;-65
2023/01/20 04:58:42;;;;;;;13.52;7.15;;;;;;;;;;5074005;28;20041;-65
2023/01/20 05:01:10;;;;;;;17.85;7.60;;;;;;;;;;5072035;28;20036;-65
2023/01/20 05:03:37;;;;;;;13.90;6.85;;;;;;;;;;5072021;28;20036;-65
2023/01/20 05:06:05;;;;;;;8.38;4.32;;;;;;;;;;5070502;28;20045;-65
2023/01/20 05:08:33;;;;;;;5.32;3.45;;;;;;;;;;5071738;28;20111;-65
2023/01/20 05:11:00;;;;;;;7.07;3.28;;;;;;;;;;5071806;28;20044;-65
2023/01/20 05:13:28;;;;;;;5.75;3.20;;;;;;;;;;5071706;28;20041;-65
2023/01/20 05:15:56;;;;;;;5.85;2.95;;;;;;;;;;5072169;28;20090;-65
2023/01/20 05:18:23;;;;;;;7.60;3.17;;;;;;;;;;5073495;28;20051;-66
2023/01/20 05:20:51;;;;;;;10.63;3.97;;;;;;;;;;5073545;28;20073;-65
2023/01/20 05:23:18;;;;;;;8.93;3.60;;;;;;;;;;5073375;28;20046;-66
2023/01/20 05:25:52;;;;;;;8.63;3.88;;;;;;;;;;5073234;28;20041;-65
2023/01/20 05:28:20;;;;;;;5.40;3.50;;;;;;;;;;5073298;28;20044;-65
2023/01/20 05:30:47;;;;;;;5.75;3.50;;;;;;;;;;5073306;28;20119;-65
2023/01/20 05:33:15;;;;;;;9.93;3.50;;;;;;;;;;5073121;28;20135;-65
2023/01/20 05:35:42;;;;;;;6.00;3.75;;;;;;;;;;5072832;28;20090;-65
2023/01/20 05:38:10;;;;;;;7.50;3.83;;;;;;;;;;5073283;28;20589;-65
2023/01/20 05:40:38;;;;;;;4.85;3.38;;;;;;;;;;5073083;28;20044;-64
2023/01/20 05:43:05;;;;;;;13.45;4.53;;;;;;;;;;5072850;28;20049;-64
2023/01/20 05:45:33;;;;;;;16.55;7.35;;;;;;;;;;5073213;28;20048;-64
2023/01/20 05:48:00;;;;;;;20.42;10.75;;;;;;;;;;5073038;28;20048;-64
2023/01/20 05:50:28;;;;;;;17.88;8.70;;;;;;;;;;5083695;28;20051;-64
2023/01/20 05:52:56;;;;;;;26.25;11.40;;;;;;;;;;5092562;28;20377;-64
2023/01/20 05:55:23;;;;;;;23.35;12.65;;;;;;;;;;5091706;28;20075;-64
2023/01/20 05:57:51;;;;;;;23.50;12.88;;;;;;;;;;5093049;28;20547;-64
2023/01/20 06:00:18;;;;;;;24.45;12.55;;;;;;;;;;5092934;28;20068;-64
2023/01/20 06:02:46;;;;;;;25.90;13.63;;;;;;;;;;5092916;28;20032;-64
2023/01/20 06:05:13;;;;;;;28.42;14.10;;;;;;;;;;5093026;28;20110;-64
2023/01/20 06:07:42;;;;;;;25.85;12.35;;;;;;;;;;5092971;28;20048;-64
2023/01/20 06:10:10;;;;;;;22.58;11.43;;;;;;;;;;5093135;28;20044;-64
2023/01/20 06:12:37;;;;;;;16.88;8.60;;;;;;;;;;5092941;28;20040;-64
2023/01/20 06:15:05;;;;;;;14.77;9.25;;;;;;;;;;5092911;28;20044;-65
2023/01/20 06:17:32;;;;;;;17.30;9.25;;;;;;;;;;5093001;28;20115;-64
2023/01/20 06:20:00;;;;;;;13.38;7.22;;;;;;;;;;5092834;28;20156;-63
2023/01/20 06:22:27;;;;;;;11.98;6.22;;;;;;;;;;5092802;28;20115;-63
2023/01/20 06:24:55;;;;;;;22.02;10.65;;;;;;;;;;5092636;28;20115;-63
2023/01/20 06:27:22;;;;;;;32.67;13.95;;;;;;;;;;5092654;28;20097;-64
2023/01/20 06:29:50;;;;;;;13.57;7.28;;;;;;;;;;5091653;28;20036;-64
2023/01/20 06:32:17;;;;;;;14.48;5.28;;;;;;;;;;5093055;28;20123;-64
2023/01/20 06:34:45;;;;;;;10.90;4.82;;;;;;;;;;5092663;28;20052;-63
2023/01/20 06:37:12;;;;;;;14.93;6.80;;;;;;;;;;5091400;28;20047;-63
2023/01/20 06:39:40;;;;;;;17.38;8.68;;;;;;;;;;5092835;28;20044;-64
2023/01/20 06:42:07;;;;;;;14.98;7.82;;;;;;;;;;5092598;28;20055;-64
2023/01/20 06:44:36;;;;;;;12.40;4.75;;;;;;;;;;5092459;28;20044;-64
2023/01/20 06:47:03;;;;;;;7.57;4.07;;;;;;;;;;5092493;28;20490;-64
2023/01/20 06:49:32;;;;;;;8.88;4.13;;;;;;;;;;5092788;28;20076;-63
2023/01/20 06:51:59;;;;;;;6.25;3.25;;;;;;;;;;5092483;28;20401;-63
2023/01/20 06:54:27;;;;;;;10.93;4.40;;;;;;;;;;5092303;28;20036;-65
2023/01/20 06:56:54;;;;;;;6.63;3.78;;;;;;;;;;5092491;28;20432;-64
2023/01/20 06:59:22;;;;;;;7.78;4.00;;;;;;;;;;5091451;28;20086;-64
2023/01/20 07:01:50;;;;;;;15.63;7.30;;;;;;;;;;5092362;28;20119;-64
2023/01/20 07:04:17;;;;;;;10.38;5.47;;;;;;;;;;5092233;28;20051;-64
2023/01/20 07:06:45;;;;;;;57.72;44.72;;;;;;;;;;5092371;28;20040;-64
2023/01/20 07:09:13;;;;;;;64.15;56.85;;;;;;;;;;5092140;28;20493;-64
2023/01/20 07:11:40;;;;;;;39.47;33.90;;;;;;;;;;5091873;28;20048;-64
2023/01/20 07:14:08;;;;;;;40.25;31.55;;;;;;;;;;5091721;28;20055;-63
2023/01/20 07:16:36;;;;;;;18.05;11.27;;;;;;;;;;5092212;28;20051;-62
2023/01/20 07:19:04;;;;;;;11.32;6.68;;;;;;;;;;5071890;28;20101;-65
2023/01/20 07:21:31;;;;;;;9.18;4.55;;;;;;;;;;5071488;28;20040;-64
2023/01/20 07:24:00;;;;;;;12.70;6.00;;;;;;;;;;5071183;28;20040;-64
2023/01/20 07:26:28;;;;;;;14.13;7.35;;;;;;;;;;5071747;28;20115;-65
2023/01/20 07:28:57;;;;;;;29.58;26.42;;;;;;;;;;5070833;28;20429;-65
2023/01/20 07:31:26;;;;;;;21.05;16.25;;;;;;;;;;5071764;28;20052;-65
2023/01/20 07:33:55;;;;;;;8.57;4.43;;;;;;;;;;5071708;28;20041;-64
2023/01/20 07:36:23;;;;;;;5.60;2.75;;;;;;;;;;5072272;28;20454;-64
2023/01/20 07:38:51;;;;;;;6.57;3.63;;;;;;;;;;5070457;28;20051;-65
2023/01/20 07:41:20;;;;;;;8.48;4.03;;;;;;;;;;5075328;28;20036;-64
2023/01/20 07:43:49;;;;;;;10.98;4.70;;;;;;;;;;5075265;28;20540;-64
2023/01/20 07:46:17;;;;;;;7.85;3.95;;;;;;;;;;5075177;28;20040;-64
2023/01/20 07:48:44;;;;;;;7.38;4.25;;;;;;;;;;5075230;28;20037;-64
2023/01/20 07:51:12;;;;;;;8.18;3.92;;;;;;;;;;5075404;28;20075;-65
2023/01/20 07:53:45;;;;;;;10.25;4.18;;;;;;;;;;5075086;28;20375;-65
2023/01/20 07:56:20;;;;;;;14.60;4.90;;;;;;;;;;5073938;28;20049;-64
2023/01/20 07:58:49;;;;;;;10.23;4.03;;;;;;;;;;5075278;28;20047;-64
2023/01/20 08:01:20;;;;;;;11.05;4.80;;;;;;;;;;5074876;28;20043;-64
2023/01/20 08:03:48;;;;;;;10.88;5.15;;;;;;;;;;5075047;28;20081;-65
2023/01/20 08:06:17;;;;;;;13.07;4.55;;;;;;;;;;5075136;28;20051;-65
2023/01/20 08:08:45;;;;;;;10.60;4.68;;;;;;;;;;5074959;28;20037;-65
2023/01/20 08:11:13;;;;;;;11.43;5.07;;;;;;;;;;5074878;28;20486;-65
2023/01/20 08:13:41;;;;;;;13.20;4.97;;;;;;;;;;5075214;28;20147;-65
2023/01/20 08:16:10;;;;;;;10.82;5.70;;;;;;;;;;5074803;28;20044;-65
2023/01/20 08:18:38;;;;;;;15.75;7.32;;;;;;;;;;5074825;28;20044;-65
2023/01/20 08:21:07;;;;;;;12.05;6.15;;;;;;;;;;5074887;28;20044;-65
2023/01/20 08:23:35;;;;;;;15.93;6.20;;;;;;;;;;5074457;28;20047;-65
2023/01/20 08:26:03;;;;;;;15.77;6.15;;;;;;;;;;5073092;28;20090;-64
2023/01/20 08:28:32;;;;;;;17.50;7.68;;;;;;;;;;5074663;28;20049;-65
2023/01/20 08:31:06;;;;;;;20.15;7.45;;;;;;;;;;5074583;28;20045;-64
2023/01/20 08:33:34;;;;;;;17.23;8.45;;;;;;;;;;5074462;28;20037;-65
2023/01/20 08:36:06;;;;;;;26.35;12.40;;;;;;;;;;5074527;28;20036;-65
2023/01/20 08:38:34;;;;;;;13.27;6.95;;;;;;;;;;5074320;28;20041;-65
2023/01/20 08:41:05;;;;;;;15.13;7.85;;;;;;;;;;5074459;28;20045;-65
2023/01/20 08:43:33;;;;;;;14.75;7.15;;;;;;;;;;5074333;28;20058;-65
2023/01/20 08:46:01;;;;;;;17.88;7.90;;;;;;;;;;5074110;28;20036;-65
2023/01/20 08:48:29;;;;;;;20.85;8.00;;;;;;;;;;5074157;28;20044;-65
2023/01/20 08:50:56;;;;;;;15.30;8.10;;;;;;;;;;5074047;28;20048;-65
2023/01/20 08:53:24;;;;;;;14.63;8.50;;;;;;;;;;5072749;28;20120;-64
2023/01/20 08:55:59;;;;;;;20.58;7.95;;;;;;;;;;5073930;28;20524;-65
2023/01/20 08:58:27;;;;;;;15.38;8.20;;;;;;;;;;5072869;28;20115;-65
2023/01/20 09:00:55;;;;;;;14.90;6.85;;;;;;;;;;5074066;28;20090;-65
2023/01/20 09:03:23;;;;;;;17.98;7.30;;;;;;;;;;5073812;28;20490;-65
2023/01/20 09:05:50;;;;;;;16.13;7.82;;;;;;;;;;5073761;28;20040;-65
2023/01/20 09:08:18;;;;;;;11.30;6.25;;;;;;;;;;5073907;28;20378;-65
2023/01/20 09:10:46;;;;;;;10.85;6.93;;;;;;;;;;5073831;28;20048;-66
2023/01/20 09:13:14;;;;;;;15.13;8.32;;;;;;;;;;5073764;28;20032;-64
2023/01/20 09:15:41;;;;;;;12.65;7.68;;;;;;;;;;5074003;28;20037;-64
2023/01/20 09:18:09;;;;;;;16.75;9.75;;;;;;;;;;5073708;28;20040;-64
2023/01/20 09:20:36;;;;;;;15.45;8.88;;;;;;;;;;5073646;28;20047;-64
2023/01/20 09:23:04;;;;;;;12.80;7.20;;;;;;;;;;5073539;28;20379;-65
2023/01/20 09:25:32;;;;;;;17.33;10.02;;;;;;;;;;5073385;28;20040;-64
2023/01/20 09:28:00;;;;;;;15.85;8.98;;;;;;;;;;5073369;28;20094;-64
2023/01/20 09:30:27;;;;;;;15.30;8.05;;;;;;;;;;5073361;28;20064;-64
2023/01/20 09:32:58;;;;;;;18.92;9.95;;;;;;;;;;5073396;28;20041;-65
2023/01/20 09:35:26;;;;;;;17.25;8.15;;;;;;;;;;5073399;28;20082;-65
2023/01/20 09:43:55;;;;;;;13.90;7.15;;;;;;;;;;5064791;28;20462;-65
2023/01/20 09:46:23;;;;;;;10.52;7.07;;;;;;;;;;5072982;28;20044;-65
2023/01/20 09:54:45;;;;;;;14.15;6.95;;;;;;;;;;5072912;28;20496;-65
2023/01/20 09:57:13;;;;;;;14.50;6.10;;;;;;;;;;5072837;28;20036;-65
2023/01/20 09:59:44;;;;;;;13.05;6.07;;;;;;;;;;5072997;28;20041;-65
2023/01/20 10:02:17;;;;;;;11.63;5.65;;;;;;;;;;5071231;28;20127;-65
2023/01/20 10:04:52;;;;;;;13.18;6.25;;;;;;;;;;5073140;28;20445;-65
2023/01/20 10:07:26;;;;;;;12.18;6.30;;;;;;;;;;5072903;28;20052;-65
2023/01/20 10:09:56;;;;;;;10.75;6.53;;;;;;;;;;5072897;28;20068;-65
2023/01/20 10:12:30;;;;;;;13.27;6.65;;;;;;;;;;5073135;28;20036;-65
2023/01/20 10:15:13;;;;;;;11.40;6.50;;;;;;;;;;5072648;28;20064;-65
2023/01/20 10:17:54;;;;;;;12.35;5.93;;;;;;;;;;5072857;28;20499;-65
2023/01/20 10:20:34;;;;;;;10.15;6.35;;;;;;;;;;5071470;28;20047;-65
2023/01/20 10:23:04;;;;;;;13.77;6.88;;;;;;;;;;5072628;28;20055;-65
2023/01/20 10:25:38;;;;;;;12.32;5.97;;;;;;;;;;5072400;28;20052;-64
2023/01/20 10:28:13;;;;;;;8.95;4.95;;;;;;;;;;5073052;28;20044;-65
2023/01/20 10:30:42;;;;;;;10.43;5.25;;;;;;;;;;5072338;28;20081;-64
2023/01/20 10:33:15;;;;;;;10.88;5.13;;;;;;;;;;5072347;28;20040;-65
2023/01/20 10:35:46;;;;;;;11.85;6.45;;;;;;;;;;5072477;28;20040;-65
2023/01/20 10:38:20;;;;;;;13.10;5.95;;;;;;;;;;5072519;28;20068;-65
2023/01/20 10:40:55;;;;;;;11.02;5.45;;;;;;;;;;5072647;28;20053;-65
2023/01/20 10:43:22;;;;;;;8.40;5.40;;;;;;;;;;5072257;28;20048;-65
2023/01/20 10:45:59;;;;;;;10.88;5.53;;;;;;;;;;5072246;28;20044;-65
2023/01/20 10:48:26;;;;;;;13.73;5.85;;;;;;;;;;5072209;28;20098;-65
2023/01/20 10:50:54;;;;;;;11.93;6.78;;;;;;;;;;5072603;28;20063;-65
2023/01/20 10:53:24;;;;;;;9.07;5.70;;;;;;;;;;5054594;28;20409;-66
2023/01/20 10:56:03;;;;;;;12.88;7.55;;;;;;;;;;5072102;28;20079;-66
2023/01/20 10:58:33;;;;;;;12.32;7.30;;;;;;;;;;5072517;28;20037;-65
2023/01/20 11:01:02;;;;;;;11.40;6.53;;;;;;;;;;5072154;28;20129;-65
2023/01/20 11:03:33;;;;;;;9.15;4.93;;;;;;;;;;5072130;28;20041;-65
2023/01/20 11:06:02;;;;;;;9.90;5.63;;;;;;;;;;5072153;28;20043;-65
2023/01/20 11:08:30;;;;;;;13.65;6.40;;;;;;;;;;5072180;28;20041;-65
2023/01/20 11:11:09;;;;;;;11.65;6.20;;;;;;;;;;5071997;28;20048;-65
2023/01/20 11:13:36;;;;;;;13.88;7.13;;;;;;;;;;5072024;28;20040;-65
2023/01/20 11:16:10;;;;;;;15.38;8.05;;;;;;;;;;5075737;28;20044;-65
2023/01/20 11:18:38;;;;;;;15.48;8.52;;;;;;;;;;5075863;28;20490;-65
2023/01/20 11:21:07;;;;;;;16.27;9.38;;;;;;;;;;5075840;28;20040;-65
2023/01/20 11:23:37;;;;;;;14.88;7.43;;;;;;;;;;5075626;28;20044;-65
2023/01/20 11:26:20;;;;;;;10.38;6.68;;;;;;;;;;5075433;28;20115;-65
2023/01/20 11:28:47;;;;;;;14.60;6.70;;;;;;;;;;5074557;28;20068;-65
2023/01/20 11:31:15;;;;;;;11.35;6.35;;;;;;;;;;5075517;28;20102;-65
2023/01/20 11:33:56;;;;;;;12.32;6.93;;;;;;;;;;5075731;28;20090;-65
2023/01/20 11:36:25;;;;;;;11.18;6.68;;;;;;;;;;5075549;28;20040;-65
2023/01/20 11:38:54;;;;;;;10.32;6.35;;;;;;;;;;5075612;28;20033;-65
2023/01/20 11:41:24;;;;;;;7.18;4.97;;;;;;;;;;5075627;28;20067;-65
2023/01/20 11:43:54;;;;;;;10.63;5.72;;;;;;;;;;5075345;28;20048;-65
2023/01/20 11:46:23;;;;;;;8.55;5.65;;;;;;;;;;5075273;28;20063;-65
2023/01/20 11:49:05;;;;;;;8.77;6.05;;;;;;;;;;5075427;28;20478;-65
2023/01/20 11:51:32;;;;;;;10.70;6.38;;;;;;;;;;5075300;28;20405;-65
2023/01/20 11:54:08;;;;;;;10.27;6.28;;;;;;;;;;5075219;28;20109;-65
2023/01/20 11:56:40;;;;;;;11.43;5.38;;;;;;;;;;5075207;28;20068;-66
2023/01/20 11:59:37;;;;;;;9.23;5.70;;;;;;;;;;5075137;28;20127;-66
2023/01/20 12:02:08;;;;;;;9.23;5.20;;;;;;;;;;5070682;28;20139;-66
2023/01/20 12:04:36;;;;;;;11.95;5.85;;;;;;;;;;5073716;28;20459;-65
2023/01/20 12:07:06;;;;;;;10.15;5.85;;;;;;;;;;5074912;28;20102;-66
2023/01/20 12:09:37;;;;;;;17.48;7.15;;;;;;;;;;5073606;28;20044;-66
2023/01/20 12:12:06;;;;;;;11.73;6.45;;;;;;;;;;5075361;28;20127;-66
2023/01/20 12:14:42;;;;;;;10.07;5.97;;;;;;;;;;5074820;28;20041;-66
2023/01/20 12:17:10;;;;;;;8.65;5.63;;;;;;;;;;5074688;28;20124;-66
2023/01/20 12:19:40;;;;;;;9.13;6.20;;;;;;;;;;5074662;28;20095;-65
2023/01/20 12:22:15;;;;;;;7.90;4.70;;;;;;;;;;5074595;28;20497;-66
2023/01/20 12:25:06;;;;;;;8.80;4.47;;;;;;;;;;5074675;28;20363;-65
2023/01/20 12:27:35;;;;;;;7.97;4.30;;;;;;;;;;5074293;28;20552;-65
2023/01/20 12:30:10;;;;;;;5.15;3.50;;;;;;;;;;5074442;28;20060;-65
2023/01/20 12:32:39;;;;;;;;;;;;;;;;;;5075280;28;20040;-65
2023/01/20 12:35:12;;;;;;;4.43;3.00;;;;;;;;;;5074469;28;19924;-65
2023/01/20 12:37:56;;;;;;;4.43;3.10;;;;;;;;;;5074341;28;20071;-66
2023/01/20 12:40:37;;;;;;;5.55;3.13;;;;;;;;;;5073681;28;20115;-65
2023/01/20 12:43:17;;;;;;;6.72;4.30;;;;;;;;;;5073951;28;20123;-63
2023/01/20 12:45:48;;;;;;;5.60;4.00;;;;;;;;;;5073990;28;20487;-63
2023/01/20 12:48:18;;;;;;;7.72;4.13;;;;;;;;;;5074055;28;20072;-64
2023/01/20 12:50:52;;;;;;;4.93;3.40;;;;;;;;;;5073952;28;20038;-65
2023/01/20 12:53:29;;;;;;;8.38;3.63;;;;;;;;;;5072715;28;20048;-65
2023/01/20 12:56:03;;;;;;;6.47;3.67;;;;;;;;;;5073984;28;20032;-65
2023/01/20 12:58:38;;;;;;;8.40;3.63;;;;;;;;;;5073917;28;20139;-65
2023/01/20 13:01:09;;;;;;;6.10;4.50;;;;;;;;;;5073865;28;20043;-67
2023/01/20 13:03:36;;;;;;;5.80;3.97;;;;;;;;;;5073635;28;20401;-65
2023/01/20 13:06:16;;;;;;;9.38;4.80;;;;;;;;;;5073829;28;20033;-66
2023/01/20 13:09:04;;;;;;;8.77;5.38;;;;;;;;;;5073683;28;20056;-66
2023/01/20 13:11:43;;;;;;;9.20;5.60;;;;;;;;;;5072250;28;20048;-66
2023/01/20 13:14:10;;;;;;;6.70;4.25;;;;;;;;;;5073665;28;20044;-66
2023/01/20 13:16:50;;;;;;;6.65;4.80;;;;;;;;;;5073833;28;20032;-60
2023/01/20 13:19:18;;;;;;;8.30;5.07;;;;;;;;;;5073419;28;20166;-60
2023/01/20 13:21:47;;;;;;;7.30;5.13;;;;;;;;;;5073434;28;20094;-61
2023/01/20 13:24:33;;;;;;;11.40;5.53;;;;;;;;;;5073196;28;20101;-61
2023/01/20 13:27:01;;;;;;;9.48;5.88;;;;;;;;;;5071763;28;20409;-60
2023/01/20 13:29:35;;;;;;;10.27;5.63;;;;;;;;;;5073217;28;20040;-60
2023/01/20 13:32:04;;;;;;;9.35;4.90;;;;;;;;;;5073144;28;20122;-60
2023/01/20 13:34:33;;;;;;;6.03;4.25;;;;;;;;;;5073219;28;20397;-60
2023/01/20 13:37:06;;;;;;;8.73;4.75;;;;;;;;;;5072493;28;20044;-64
2023/01/20 13:39:41;;;;;;;11.80;5.38;;;;;;;;;;5071681;28;20094;-64
2023/01/20 13:42:27;;;;;;;10.57;5.18;;;;;;;;;;5072815;28;20059;-64
2023/01/20 13:45:13;;;;;;;8.88;6.07;;;;;;;;;;5071894;28;20124;-65
2023/01/20 13:47:47;;;;;;;6.53;4.93;;;;;;;;;;5072840;28;20106;-65
2023/01/20 13:50:26;;;;;;;8.52;4.63;;;;;;;;;;5072928;28;20043;-64
2023/01/20 13:52:59;;;;;;;8.82;5.20;;;;;;;;;;5072749;28;20072;-64
2023/01/20 13:55:48;;;;;;;7.38;5.30;;;;;;;;;;5072773;28;20123;-64
2023/01/20 13:58:27;;;;;;;8.30;4.55;;;;;;;;;;5072688;28;20049;-63
2023/01/20 14:00:54;;;;;;;7.35;4.68;;;;;;;;;;5072692;28;20123;-63
2023/01/20 14:03:29;;;;;;;7.85;4.20;;;;;;;;;;5072589;28;20036;-62
2023/01/20 14:06:01;;;;;;;6.97;4.10;;;;;;;;;;5072721;28;20516;-63
2023/01/20 14:08:31;;;;;;;6.45;3.50;;;;;;;;;;5071301;28;20135;-63
2023/01/20 14:11:11;;;;;;;7.45;4.00;;;;;;;;;;5072515;28;20040;-63
2023/01/20 14:13:39;;;;;;;8.20;4.40;;;;;;;;;;5072547;28;20067;-63
2023/01/20 14:16:17;;;;;;;8.13;4.03;;;;;;;;;;5072502;28;20036;-63
2023/01/20 14:18:44;;;;;;;11.10;4.57;;;;;;;;;;5071560;28;20040;-62
2023/01/20 14:21:18;;;;;;;8.82;5.25;;;;;;;;;;5072186;28;20105;-62
2023/01/20 14:23:45;;;;;;;11.45;5.00;;;;;;;;;;5072343;28;20107;-63
2023/01/20 14:26:15;;;;;;;7.22;4.57;;;;;;;;;;5086209;28;20048;-62
2023/01/20 14:28:46;;;;;;;7.28;3.92;;;;;;;;;;5090801;28;20032;-62
2023/01/20 14:31:21;;;;;;;7.57;4.95;;;;;;;;;;5092573;28;20044;-61
2023/01/20 14:33:54;;;;;;;6.97;4.45;;;;;;;;;;5092668;28;20051;-61
2023/01/20 14:36:22;;;;;;;7.93;4.65;;;;;;;;;;5092610;28;20545;-61
2023/01/20 14:38:55;;;;;;;8.27;4.65;;;;;;;;;;5091302;28;20044;-62
2023/01/20 14:41:24;;;;;;;9.63;5.15;;;;;;;;;;5092475;28;20120;-61
2023/01/20 14:43:52;;;;;;;11.70;6.28;;;;;;;;;;5085836;28;20037;-62
2023/01/20 14:46:19;;;;;;;8.75;4.80;;;;;;;;;;5072270;28;20513;-61
2023/01/20 14:48:47;;;;;;;8.95;5.35;;;;;;;;;;5073742;28;20075;-61
2023/01/20 14:51:15;;;;;;;6.15;3.67;;;;;;;;;;5074975;28;20091;-61
2023/01/20 14:53:43;;;;;;;6.63;3.50;;;;;;;;;;5075443;28;20044;-62
2023/01/20 14:56:17;;;;;;;8.77;4.40;;;;;;;;;;5075918;28;20032;-62
2023/01/20 14:58:45;;;;;;;6.90;2.53;;;;;;;;;;5080644;28;20071;-62
2023/01/20 15:01:31;;;;;;;6.07;2.70;;;;;;;;;;5081103;28;20432;-63
2023/01/20 15:03:58;;;;;;;;;;;;;;;;;;5076387;28;20040;-62
2023/01/20 15:06:26;;;;;;;5.05;3.05;;;;;;;;;;5076186;28;19927;-62
2023/01/20 15:08:56;;;;;;;6.93;3.55;;;;;;;;;;5076284;28;20047;-62